createdAt,value
2022-11-21T00:03:31.701Z,2.02
2022-11-21T00:05:59.371Z,2.01
2022-11-21T00:08:28.447Z,2.05
2022-11-21T00:11:00.343Z,1.99
2022-11-21T00:13:28.189Z,1.81
2022-11-21T00:15:55.853Z,1.84
2022-11-21T00:18:23.545Z,1.72
2022-11-21T00:20:51.345Z,1.88
2022-11-21T00:23:19.026Z,1.77
2022-11-21T00:25:48.063Z,1.80
2022-11-21T00:28:15.985Z,1.84
2022-11-21T00:30:43.653Z,1.81
2022-11-21T00:33:11.507Z,1.88
2022-11-21T00:35:39.655Z,1.90
2022-11-21T00:38:07.305Z,1.87
2022-11-21T00:40:34.957Z,1.83
2022-11-21T00:43:04.031Z,1.82
2022-11-21T00:45:31.757Z,1.82
2022-11-21T00:47:59.542Z,1.72
2022-11-21T00:50:27.312Z,1.85
2022-11-21T00:52:57.195Z,1.86
2022-11-21T00:55:25.133Z,1.67
2022-11-21T00:57:53.186Z,1.74
2022-11-21T01:00:22.400Z,1.82
2022-11-21T01:02:50.053Z,1.81
2022-11-21T01:05:17.841Z,1.81
2022-11-21T01:07:45.540Z,1.58
2022-11-21T01:10:13.415Z,1.81
2022-11-21T01:12:41.139Z,1.67
2022-11-21T01:15:10.208Z,1.67
2022-11-21T01:17:39.395Z,1.77
2022-11-21T01:20:08.505Z,1.81
2022-11-21T01:22:36.302Z,1.38
2022-11-21T01:25:04.225Z,1.79
2022-11-21T01:27:32.053Z,1.79
2022-11-21T01:29:59.901Z,1.78
2022-11-21T01:32:27.646Z,1.79
2022-11-21T01:34:56.769Z,1.74
2022-11-21T01:37:25.127Z,1.53
2022-11-21T01:39:52.920Z,1.65
2022-11-21T01:42:20.670Z,1.51
2022-11-21T01:44:51.094Z,1.70
2022-11-21T01:47:19.124Z,1.50
2022-11-21T01:49:50.243Z,1.50
2022-11-21T01:52:23.837Z,1.60
2022-11-21T01:54:56.729Z,1.63
2022-11-21T01:57:28.560Z,1.36
2022-11-21T02:00:01.261Z,1.42
2022-11-21T02:02:32.469Z,1.32
2022-11-21T02:05:01.790Z,1.64
2022-11-21T02:07:36.924Z,1.77
2022-11-21T02:10:06.496Z,1.47
2022-11-21T02:12:39.782Z,1.64
2022-11-21T02:15:09.088Z,1.44
2022-11-21T02:17:36.962Z,1.59
2022-11-21T02:20:10.344Z,1.64
2022-11-21T02:22:50.033Z,1.50
2022-11-21T02:25:21.959Z,1.48
2022-11-21T02:27:53.555Z,1.54
2022-11-21T02:30:21.690Z,1.75
2022-11-21T02:32:49.384Z,1.58
2022-11-21T02:35:18.816Z,1.35
2022-11-21T02:37:49.271Z,1.65
2022-11-21T02:40:25.468Z,1.68
2022-11-21T02:43:02.274Z,1.37
2022-11-21T02:45:34.276Z,1.51
2022-11-21T02:48:04.253Z,1.35
2022-11-21T02:50:34.301Z,1.47
2022-11-21T02:53:02.057Z,1.59
2022-11-21T02:55:31.333Z,1.35
2022-11-21T02:58:03.390Z,1.41
2022-11-21T03:00:33.163Z,1.56
2022-11-21T03:03:01.220Z,1.36
2022-11-21T03:05:29.646Z,1.23
2022-11-21T03:07:57.917Z,1.53
2022-11-21T03:10:26.024Z,1.19
2022-11-21T03:13:01.088Z,1.59
2022-11-21T03:15:31.115Z,1.35
2022-11-21T03:18:01.143Z,1.43
2022-11-21T03:20:28.987Z,1.50
2022-11-21T03:22:56.782Z,1.55
2022-11-21T03:25:24.634Z,1.46
2022-11-21T03:27:53.463Z,1.58
2022-11-21T03:30:23.779Z,1.21
2022-11-21T03:32:51.654Z,1.42
2022-11-21T03:35:19.462Z,1.49
2022-11-21T03:37:49.693Z,1.51
2022-11-21T03:40:17.662Z,1.30
2022-11-21T03:42:45.626Z,1.45
2022-11-21T03:45:13.815Z,1.40
2022-11-21T03:47:43.353Z,1.09
2022-11-21T03:50:12.080Z,1.23
2022-11-21T03:52:39.900Z,1.22
2022-11-21T03:55:08.238Z,1.22
2022-11-21T03:57:36.094Z,1.17
2022-11-21T04:00:04.160Z,1.34
2022-11-21T04:02:32.102Z,1.04
2022-11-21T04:05:01.411Z,1.09
2022-11-21T04:07:30.112Z,1.20
2022-11-21T04:09:58.075Z,1.12
2022-11-21T04:12:25.984Z,0.98
2022-11-21T04:14:53.838Z,1.18
2022-11-21T04:17:21.830Z,0.98
2022-11-21T04:19:49.653Z,1.27
2022-11-21T04:22:18.922Z,1.42
2022-11-21T04:24:46.874Z,1.38
2022-11-21T04:27:14.650Z,1.39
2022-11-21T04:29:42.389Z,1.37
2022-11-21T04:32:10.217Z,1.11
2022-11-21T04:34:39.637Z,1.01
2022-11-21T04:37:11.346Z,1.00
2022-11-21T04:39:40.994Z,1.07
2022-11-21T04:42:08.757Z,1.35
2022-11-21T04:44:36.418Z,1.17
2022-11-21T04:47:05.699Z,1.29
2022-11-21T04:49:33.765Z,1.03
2022-11-21T04:52:01.528Z,1.26
2022-11-21T04:54:29.776Z,1.15
2022-11-21T04:56:59.169Z,1.17
2022-11-21T04:59:26.974Z,1.36
2022-11-21T05:01:54.621Z,1.51
2022-11-21T05:04:22.288Z,1.52
2022-11-21T05:06:50.020Z,1.19
2022-11-21T05:09:17.854Z,1.38
2022-11-21T05:12:03.206Z,1.45
2022-11-21T05:14:32.286Z,1.27
2022-11-21T05:17:00.009Z,1.22
2022-11-21T05:19:27.841Z,1.20
2022-11-21T05:21:55.626Z,1.45
2022-11-21T05:24:23.491Z,1.51
2022-11-21T05:26:51.274Z,1.40
2022-11-21T05:29:21.642Z,1.52
2022-11-21T05:31:53.099Z,1.46
2022-11-21T05:34:20.910Z,1.46
2022-11-21T05:36:48.647Z,1.42
2022-11-21T05:39:16.638Z,1.49
2022-11-21T05:41:44.249Z,1.21
2022-11-21T05:44:11.017Z,1.22
2022-11-21T05:46:38.836Z,1.46
2022-11-21T05:49:08.264Z,1.51
2022-11-21T05:51:36.441Z,1.35
2022-11-21T05:54:04.771Z,1.19
2022-11-21T05:56:33.099Z,1.00
2022-11-21T05:59:01.077Z,1.22
2022-11-21T06:01:46.535Z,1.28
2022-11-21T06:04:15.893Z,1.37
2022-11-21T06:06:44.219Z,1.57
2022-11-21T06:09:12.183Z,1.42
2022-11-21T06:11:40.822Z,1.39
2022-11-21T06:14:08.775Z,1.14
2022-11-21T06:16:36.777Z,1.44
2022-11-21T06:19:04.966Z,1.03
2022-11-21T06:21:37.316Z,1.40
2022-11-21T06:24:05.654Z,1.50
2022-11-21T06:26:33.776Z,1.55
2022-11-21T06:29:01.661Z,1.54
2022-11-21T06:31:30.396Z,1.54
2022-11-21T06:34:00.399Z,1.39
2022-11-21T06:36:29.053Z,1.43
2022-11-21T06:38:58.268Z,1.32
2022-11-21T06:41:30.233Z,1.64
2022-11-21T06:44:00.872Z,1.40
2022-11-21T06:46:29.337Z,1.71
2022-11-21T06:48:57.710Z,1.59
2022-11-21T06:51:27.122Z,1.36
2022-11-21T06:53:56.779Z,1.61
2022-11-21T06:56:27.281Z,1.66
2022-11-21T06:58:55.984Z,1.55
2022-11-21T07:01:27.349Z,1.64
2022-11-21T07:03:56.053Z,1.49
2022-11-21T07:06:24.397Z,1.51
2022-11-21T07:11:45.949Z,1.74
2022-11-21T07:14:13.296Z,1.85
2022-11-21T07:16:41.380Z,1.50
2022-11-21T07:19:09.548Z,1.78
2022-11-21T07:21:37.570Z,1.67
2022-11-21T07:24:06.508Z,1.87
2022-11-21T07:26:34.737Z,2.01
2022-11-21T07:29:04.378Z,1.61
2022-11-21T07:31:32.299Z,1.89
2022-11-21T07:34:00.439Z,1.76
2022-11-21T07:36:32.345Z,1.86
2022-11-21T07:39:00.512Z,1.96
2022-11-21T07:41:28.461Z,1.80
2022-11-21T07:43:56.636Z,1.74
2022-11-21T07:46:25.859Z,2.05
2022-11-21T07:48:53.803Z,1.87
2022-11-21T07:51:21.892Z,1.98
2022-11-21T07:53:49.986Z,1.92
2022-11-21T07:56:18.110Z,1.96
2022-11-21T07:58:46.204Z,1.95
2022-11-21T08:01:14.269Z,1.97
2022-11-21T08:03:43.749Z,1.95
2022-11-21T08:06:14.485Z,2.20
2022-11-21T08:08:42.540Z,2.27
2022-11-21T08:11:10.621Z,2.33
2022-11-21T08:13:38.779Z,2.15
2022-11-21T08:16:07.294Z,2.27
2022-11-21T08:18:35.396Z,2.54
2022-11-21T08:21:05.947Z,2.20
2022-11-21T08:23:34.123Z,2.50
2022-11-21T08:26:02.110Z,2.32
2022-11-21T08:28:30.059Z,2.43
2022-11-21T08:30:58.049Z,2.47
2022-11-21T08:33:26.007Z,2.36
2022-11-21T08:35:53.895Z,2.34
2022-11-21T08:38:23.262Z,2.42
2022-11-21T08:41:17.301Z,2.76
2022-11-21T08:43:45.997Z,2.60
2022-11-21T08:46:13.838Z,2.71
2022-11-21T08:48:41.607Z,2.73
2022-11-21T08:51:09.541Z,2.75
2022-11-21T08:53:38.862Z,2.81
2022-11-21T08:56:06.788Z,2.61
2022-11-21T08:58:34.897Z,2.93
2022-11-21T09:01:02.740Z,2.93
2022-11-21T09:03:31.558Z,2.93
2022-11-21T09:05:59.692Z,2.80
2022-11-21T09:08:27.914Z,2.65
2022-11-21T09:10:59.101Z,2.81
2022-11-21T09:13:27.189Z,3.07
2022-11-21T09:16:16.284Z,3.07
2022-11-21T09:18:47.216Z,2.90
2022-11-21T09:21:15.944Z,3.19
2022-11-21T09:23:43.774Z,2.93
2022-11-21T09:26:13.364Z,2.94
2022-11-21T09:28:42.322Z,3.05
2022-11-21T09:31:10.059Z,3.14
2022-11-21T09:33:37.974Z,3.30
2022-11-21T09:36:06.299Z,3.31
2022-11-21T09:38:34.158Z,3.23
2022-11-21T09:41:30.967Z,3.36
2022-11-21T09:44:07.939Z,3.45
2022-11-21T09:46:46.012Z,3.51
2022-11-21T09:49:15.717Z,3.57
2022-11-21T09:51:46.223Z,3.58
2022-11-21T09:54:20.405Z,3.63
2022-11-21T09:56:50.145Z,3.63
2022-11-21T09:59:33.409Z,3.65
2022-11-21T10:02:01.372Z,3.54
2022-11-21T10:04:29.651Z,3.62
2022-11-21T10:07:04.110Z,3.67
2022-11-21T10:09:48.260Z,3.58
2022-11-21T10:12:38.564Z,3.83
2022-11-21T10:15:19.643Z,3.87
2022-11-21T10:18:00.746Z,3.74
2022-11-21T10:20:38.238Z,4.11
2022-11-21T10:23:41.677Z,4.21
2022-11-21T10:26:17.555Z,4.27
2022-11-21T10:28:53.346Z,4.33
2022-11-21T10:31:21.714Z,4.40
2022-11-21T10:33:51.636Z,4.46
2022-11-21T10:36:28.110Z,4.49
2022-11-21T10:39:02.291Z,4.53
2022-11-21T10:41:41.151Z,4.62
2022-11-21T10:44:35.644Z,4.63
2022-11-21T10:47:03.721Z,4.61
2022-11-21T10:49:35.427Z,4.65
2022-11-21T10:52:08.691Z,4.78
2022-11-21T10:55:06.671Z,4.82
2022-11-21T10:57:40.115Z,4.86
2022-11-21T11:00:24.704Z,4.83
2022-11-21T11:03:05.540Z,4.89
2022-11-21T11:05:34.948Z,4.91
2022-11-21T11:08:08.304Z,5.02
2022-11-21T11:10:38.399Z,5.10
2022-11-21T11:13:50.111Z,5.29
2022-11-21T11:16:22.718Z,5.58
2022-11-21T11:18:58.421Z,5.75
2022-11-21T11:21:27.934Z,5.78
2022-11-21T11:24:07.407Z,5.72
2022-11-21T11:26:35.169Z,5.72
2022-11-21T11:29:10.688Z,5.76
2022-11-21T11:31:46.063Z,5.75
2022-11-21T11:34:15.620Z,5.71
2022-11-21T11:36:54.808Z,5.72
2022-11-21T11:39:38.075Z,5.81
2022-11-21T11:42:59.384Z,5.85
2022-11-21T11:46:10.548Z,5.82
2022-11-21T11:48:56.596Z,5.89
2022-11-21T11:51:36.128Z,5.90
2022-11-21T11:54:09.722Z,6.01
2022-11-21T11:56:39.155Z,5.95
2022-11-21T11:59:17.532Z,6.14
2022-11-21T12:01:52.859Z,6.39
2022-11-21T12:04:23.785Z,6.58
2022-11-21T12:09:51.544Z,6.61
2022-11-21T12:12:30.408Z,6.43
2022-11-21T12:15:22.508Z,6.53
2022-11-21T12:17:57.099Z,6.69
2022-11-21T12:20:31.390Z,6.62
2022-11-21T12:22:59.403Z,6.72
2022-11-21T12:25:32.746Z,6.58
2022-11-21T12:28:00.885Z,6.60
2022-11-21T12:30:53.817Z,6.63
2022-11-21T12:33:23.096Z,6.69
2022-11-21T12:36:17.435Z,6.68
2022-11-21T12:39:22.011Z,6.57
2022-11-21T12:42:11.760Z,6.61
2022-11-21T12:44:59.048Z,6.76
2022-11-21T12:47:56.119Z,6.63
2022-11-21T12:50:50.554Z,6.59
2022-11-21T12:53:55.518Z,6.61
2022-11-21T12:56:42.718Z,6.70
2022-11-21T12:59:15.506Z,6.65
2022-11-21T13:01:51.916Z,6.53
2022-11-21T13:04:24.337Z,6.73
2022-11-21T13:06:54.251Z,6.75
2022-11-21T13:09:27.385Z,6.90
2022-11-21T13:12:01.904Z,6.78
2022-11-21T13:14:36.440Z,6.97
2022-11-21T13:17:13.785Z,6.87
2022-11-21T13:19:50.332Z,6.89
2022-11-21T13:22:51.459Z,7.12
2022-11-21T13:25:48.498Z,7.15
2022-11-21T13:28:40.334Z,7.13
2022-11-21T13:31:30.785Z,6.95
2022-11-21T13:33:58.953Z,7.06
2022-11-21T13:36:43.156Z,7.15
2022-11-21T13:39:36.466Z,7.17
2022-11-21T13:42:31.056Z,7.17
2022-11-21T13:44:59.627Z,7.12
2022-11-21T13:48:18.870Z,6.91
2022-11-21T13:51:19.177Z,6.82
2022-11-21T13:54:06.531Z,6.79
2022-11-21T13:56:40.177Z,6.76
2022-11-21T13:59:31.416Z,6.63
2022-11-21T14:02:31.998Z,6.79
2022-11-21T14:05:17.511Z,6.78
2022-11-21T14:07:47.896Z,6.60
2022-11-21T14:10:33.917Z,6.81
2022-11-21T14:13:04.389Z,6.71
2022-11-21T14:15:43.111Z,6.78
2022-11-21T14:18:20.928Z,6.78
2022-11-21T14:20:51.995Z,6.73
2022-11-21T14:23:22.295Z,6.72
2022-11-21T14:25:53.815Z,6.70
2022-11-21T14:28:25.733Z,6.72
2022-11-21T14:30:59.266Z,6.63
2022-11-21T14:33:32.133Z,-147.26
2022-11-21T14:36:03.214Z,-147.26
2022-11-21T14:38:34.123Z,-147.26
2022-11-21T14:41:28.754Z,-147.26
2022-11-21T14:44:14.979Z,-147.26
2022-11-21T14:46:45.265Z,-147.26
2022-11-21T14:49:33.981Z,-147.26
2022-11-21T14:52:17.181Z,-147.26
2022-11-21T14:55:22.458Z,-147.26
2022-11-21T14:57:42.449Z,-147.26
2022-11-21T15:00:43.296Z,-147.26
2022-11-21T15:03:05.848Z,-147.26
2022-11-21T15:06:05.169Z,-147.26
2022-11-21T15:11:12.869Z,-147.26
2022-11-21T15:14:11.816Z,-147.26
2022-11-21T15:16:30.011Z,-147.26
2022-11-21T15:18:59.137Z,-147.26
2022-11-21T15:21:26.881Z,-147.26
2022-11-21T15:23:56.680Z,-147.26
2022-11-21T15:26:31.233Z,-147.26
2022-11-21T15:29:00.895Z,-147.26
2022-11-21T15:31:28.776Z,-147.26
2022-11-21T15:34:33.064Z,-147.26
2022-11-21T15:37:04.551Z,-147.26
2022-11-21T15:39:33.565Z,-147.26
2022-11-21T15:42:28.633Z,-147.26
2022-11-21T15:45:00.784Z,-147.26
2022-11-21T15:47:28.573Z,-147.26
2022-11-21T15:49:57.674Z,-147.26
2022-11-21T15:52:25.629Z,-147.26
2022-11-21T15:54:53.362Z,-147.26
2022-11-21T15:57:22.256Z,-147.26
2022-11-21T15:59:50.628Z,-147.26
2022-11-21T16:02:18.403Z,-147.26
2022-11-21T16:04:46.188Z,-147.26
2022-11-21T16:07:15.388Z,-147.26
2022-11-21T16:09:44.794Z,-147.26
2022-11-21T16:12:12.674Z,-147.26
2022-11-21T16:14:40.368Z,-147.26
2022-11-21T16:17:08.242Z,-147.26
2022-11-21T16:19:35.929Z,-147.26
2022-11-21T16:22:03.713Z,-147.26
2022-11-21T16:24:33.173Z,-147.26
2022-11-21T16:27:02.386Z,-147.26
2022-11-21T16:29:30.629Z,-147.26
2022-11-21T16:31:58.888Z,-147.26
2022-11-21T16:34:27.399Z,-147.26
2022-11-21T16:36:56.025Z,-147.26
2022-11-21T16:39:23.819Z,-147.26
2022-11-21T16:41:52.961Z,-147.26
2022-11-21T16:44:20.701Z,-147.26
2022-11-21T16:46:51.527Z,-147.26
2022-11-21T16:49:20.204Z,-147.26
2022-11-21T16:51:47.951Z,-147.26
2022-11-21T16:54:16.276Z,-147.26
2022-11-21T16:56:43.963Z,-147.26
2022-11-21T16:59:13.176Z,-147.26
2022-11-21T17:01:40.947Z,-147.26
2022-11-21T17:04:15.617Z,-147.26
2022-11-21T17:06:44.717Z,-147.26
2022-11-21T17:09:12.667Z,-147.26
2022-11-21T17:11:40.358Z,-147.26
2022-11-21T17:14:08.813Z,-147.26
2022-11-21T17:16:38.078Z,-147.26
2022-11-21T17:19:06.480Z,-147.26
2022-11-21T17:21:34.254Z,-147.26
2022-11-21T17:24:02.020Z,-147.26
2022-11-21T17:26:30.328Z,-147.26
2022-11-21T17:28:59.601Z,-147.26
2022-11-21T17:31:28.400Z,-147.26
2022-11-21T17:33:58.644Z,-147.26
2022-11-21T17:36:27.693Z,-147.26
2022-11-21T17:38:55.654Z,-147.26
2022-11-21T17:41:24.877Z,-147.26
2022-11-21T17:43:55.968Z,-147.26
2022-11-21T17:46:25.333Z,-147.26
2022-11-21T17:48:57.114Z,-147.26
2022-11-21T17:51:29.020Z,-147.26
2022-11-21T17:53:57.243Z,-147.26
2022-11-21T17:56:27.124Z,-147.26
2022-11-21T17:58:55.195Z,-147.26
2022-11-21T18:01:23.608Z,-147.26
2022-11-21T18:03:55.761Z,-147.26
2022-11-21T18:06:23.742Z,-147.26
2022-11-21T18:08:52.795Z,-147.26
2022-11-21T18:11:22.080Z,-147.26
2022-11-21T18:13:50.618Z,-147.26
2022-11-21T18:16:20.746Z,-147.26
2022-11-21T18:18:49.738Z,-147.26
2022-11-21T18:21:19.701Z,-147.26
2022-11-21T18:23:47.952Z,-147.26
2022-11-21T18:26:20.443Z,-147.26
2022-11-21T18:28:57.245Z,-147.26
2022-11-21T18:31:37.356Z,-147.26
2022-11-21T18:34:06.941Z,-147.26
2022-11-21T18:36:34.964Z,-147.26
2022-11-21T18:39:08.813Z,-147.26
2022-11-21T18:41:43.038Z,-147.26
2022-11-21T18:44:12.696Z,-147.26
2022-11-21T18:46:42.651Z,-147.26
2022-11-21T18:49:10.628Z,-147.26
2022-11-21T18:51:38.372Z,-147.26
2022-11-21T18:54:09.661Z,-147.26
2022-11-21T18:56:38.941Z,-147.26
2022-11-21T18:59:08.440Z,-147.26
2022-11-21T19:01:39.343Z,-147.26
2022-11-21T19:04:07.604Z,-147.26
2022-11-21T19:06:35.855Z,-147.26
2022-11-21T19:09:03.752Z,-147.26
2022-11-21T19:11:31.472Z,-147.26
2022-11-21T19:14:00.649Z,-147.26
2022-11-21T19:16:33.875Z,-147.26
2022-11-21T19:21:49.599Z,-147.26
2022-11-21T19:24:19.261Z,-147.26
2022-11-21T19:26:47.009Z,-147.26
2022-11-21T19:29:14.724Z,-147.26
2022-11-21T19:31:45.875Z,-147.26
2022-11-21T19:34:14.426Z,-147.26
2022-11-21T19:36:42.427Z,-147.26
2022-11-21T19:39:10.193Z,-147.26
2022-11-21T19:41:38.243Z,-147.26
2022-11-21T19:44:06.355Z,-147.26
2022-11-21T19:46:36.406Z,-147.26
2022-11-21T19:49:07.086Z,-147.26
2022-11-21T19:51:37.435Z,-147.26
2022-11-21T19:54:06.147Z,-147.26
2022-11-21T19:56:34.107Z,-147.26
2022-11-21T19:59:01.934Z,-147.26
2022-11-21T20:01:31.632Z,-147.26
2022-11-21T20:04:00.999Z,-147.26
2022-11-21T20:06:32.252Z,-147.26
2022-11-21T20:09:01.612Z,-147.26
2022-11-21T20:11:31.067Z,-147.26
2022-11-21T20:13:59.772Z,-147.26
2022-11-21T20:16:29.270Z,-147.26
2022-11-21T20:18:59.084Z,-147.26
2022-11-21T20:21:27.407Z,-147.26
2022-11-21T20:23:56.714Z,-147.26
2022-11-21T20:26:25.390Z,-147.26
2022-11-21T20:28:53.820Z,-147.26
2022-11-21T20:31:22.944Z,-147.26
2022-11-21T20:33:52.234Z,-147.26
2022-11-21T20:36:23.232Z,-147.26
2022-11-21T20:38:52.085Z,-147.26
2022-11-21T20:41:22.086Z,-147.26
2022-11-21T20:46:37.748Z,-147.26
2022-11-21T20:49:05.371Z,-147.26
2022-11-21T20:54:20.793Z,-147.26
2022-11-21T20:56:49.874Z,-147.26
2022-11-21T20:59:17.599Z,-147.26
2022-11-21T21:01:45.466Z,-147.26
2022-11-21T21:04:13.362Z,-147.26
2022-11-21T21:06:41.015Z,-147.26
2022-11-21T21:09:08.653Z,-147.26
2022-11-21T21:11:51.035Z,-147.26
2022-11-21T21:14:21.793Z,-147.26
2022-11-21T21:16:50.464Z,-147.26
2022-11-21T21:19:18.859Z,-147.26
2022-11-21T21:21:46.862Z,-147.26
2022-11-21T21:24:14.890Z,-147.26
2022-11-21T21:26:45.027Z,-147.26
2022-11-21T21:29:14.662Z,-147.26
2022-11-21T21:31:50.522Z,-147.26
2022-11-21T21:34:19.580Z,-147.26
2022-11-21T21:36:47.342Z,-147.26
2022-11-21T21:39:15.299Z,-147.26
2022-11-21T21:41:45.839Z,-147.26
2022-11-21T21:44:14.083Z,-147.26
2022-11-21T21:46:43.665Z,-147.26
2022-11-21T21:49:11.769Z,-147.26
2022-11-21T21:51:40.189Z,-147.26
2022-11-21T21:54:08.163Z,-147.26
2022-11-21T21:56:35.985Z,-147.26
2022-11-21T21:59:03.871Z,-147.26
2022-11-21T22:01:33.726Z,-147.26
2022-11-21T22:04:04.652Z,-147.26
2022-11-21T22:06:34.954Z,-147.26
2022-11-21T22:09:03.816Z,-147.26
2022-11-21T22:11:33.249Z,-147.26
2022-11-21T22:14:03.088Z,-147.26
2022-11-21T22:16:31.539Z,-147.26
2022-11-21T22:19:00.379Z,-147.26
2022-11-21T22:21:32.699Z,-147.26
2022-11-21T22:26:49.231Z,-147.26
2022-11-21T22:29:17.208Z,-147.26
2022-11-21T22:31:45.305Z,-147.26
2022-11-21T22:34:13.938Z,-147.26
2022-11-21T22:36:43.441Z,-147.26
2022-11-21T22:39:11.251Z,-147.26
2022-11-21T22:41:39.139Z,-147.26
2022-11-21T22:44:06.944Z,-147.26
2022-11-21T22:46:35.451Z,-147.26
2022-11-21T22:49:03.568Z,-147.26
2022-11-21T22:51:31.305Z,-147.26
2022-11-21T22:54:00.426Z,-147.26
2022-11-21T22:56:28.181Z,-147.26
2022-11-21T22:58:56.253Z,-147.26
2022-11-21T23:01:26.207Z,-147.26
2022-11-21T23:03:55.522Z,-147.26
2022-11-21T23:06:25.097Z,-147.26
2022-11-21T23:08:53.755Z,-147.26
2022-11-21T23:11:26.158Z,-147.26
2022-11-21T23:13:54.479Z,-147.26
2022-11-21T23:16:22.800Z,-147.26
2022-11-21T23:18:52.989Z,-147.26
2022-11-21T23:21:20.982Z,-147.26
2022-11-21T23:23:49.040Z,-147.26
2022-11-21T23:26:17.649Z,-147.26
2022-11-21T23:28:46.829Z,-147.26
2022-11-21T23:31:14.811Z,-147.26
2022-11-21T23:33:42.511Z,-147.26
2022-11-21T23:36:10.239Z,-147.26
2022-11-21T23:38:37.994Z,-147.26
2022-11-21T23:41:05.771Z,-147.26
2022-11-21T23:43:33.557Z,-147.26
2022-11-21T23:46:02.694Z,-147.26
2022-11-21T23:48:30.444Z,-147.26
2022-11-21T23:50:58.144Z,-147.26
2022-11-21T23:53:25.836Z,-147.26
2022-11-21T23:55:53.508Z,-147.26
2022-11-21T23:58:21.273Z,-147.26
